Time;durP1;ratioP1;P1;durP2;ratioP2;P2;SDS_P1;SDS_P2;PMS_P1;PMS_P2;Temp;Humidity;BMP_temperature;BMP_pressure;BME280_temperature;BME280_humidity;BME280_pressure;Samples;Min_cycle;Max_cycle;Signal;HPM_P1;HPM_P2
2021/12/25 00:04:56;;;;;;;9.13;2.30;;;;;;;-2.56;97.92;99621.77;3546528;82;26175;-88
2021/12/25 00:09:58;;;;;;;4.80;1.83;;;;;;;-2.66;97.94;99630.12;3537436;82;98915;-88
2021/12/25 00:15:00;;;;;;;8.97;2.13;;;;;;;-2.78;97.71;99634.48;3541313;82;98519;-88
2021/12/25 00:20:02;;;;;;;7.17;2.27;;;;;;;-2.87;98.11;99647.89;3537865;82;99052;-88
2021/12/25 00:25:03;;;;;;;9.43;2.60;;;;;;;-2.94;98.05;99666.38;3543828;82;99372;-88
2021/12/25 00:35:08;;;;;;;8.77;2.57;;;;;;;-3.12;97.93;99678.67;3545933;82;26736;-87
2021/12/25 00:40:10;;;;;;;9.53;3.70;;;;;;;-3.22;98.03;99681.03;3536355;82;98606;-88
2021/12/25 00:45:12;;;;;;;8.87;3.13;;;;;;;-3.30;98.00;99683.11;3544034;82;98835;-88
2021/12/25 00:50:13;;;;;;;7.42;3.33;;;;;;;-3.39;97.95;99687.62;3508336;82;99123;-88
2021/12/25 00:55:14;;;;;;;6.97;2.00;;;;;;;-3.47;97.75;99700.45;3477592;83;99273;-86
2021/12/25 01:00:16;;;;;;;9.87;2.37;;;;;;;-3.58;97.80;99722.47;3477505;82;98694;-87
2021/12/25 01:05:18;;;;;;;8.90;2.60;;;;;;;-3.66;97.83;99732.04;3541076;82;26487;-87
2021/12/25 01:10:20;;;;;;;14.20;3.90;;;;;;;-3.75;97.95;99724.98;3495028;82;99016;-87
2021/12/25 01:15:30;;;;;;;11.90;3.53;;;;;;;-3.82;97.69;99731.32;3488518;83;98732;-87
2021/12/25 01:30:54;;;;;;;15.03;4.97;;;;;;;-4.08;97.82;99757.09;3460612;83;99323;-87
2021/12/25 01:36:23;;;;;;;14.87;4.43;;;;;;;-4.16;98.04;99765.84;3481384;83;99272;-87
2021/12/25 01:41:00;;;;;;;19.50;4.27;;;;;;;-4.26;97.61;99770.83;3465004;82;98439;-87
2021/12/25 01:51:15;;;;;;;12.67;4.10;;;;;;;-4.42;97.87;99788.30;3508799;82;99097;-88
2021/12/25 01:56:16;;;;;;;15.43;4.17;;;;;;;-4.51;97.48;99801.36;3527340;82;99221;-87
2021/12/25 02:01:17;;;;;;;16.33;5.33;;;;;;;-4.59;97.73;99804.16;3487740;83;98911;-88
2021/12/25 02:06:18;;;;;;;14.17;5.30;;;;;;;-4.72;97.35;99817.52;3394849;85;99035;-88
2021/12/25 02:11:19;;;;;;;18.83;5.80;;;;;;;-4.86;97.03;99827.41;3389100;85;98971;-87
2021/12/25 02:16:23;;;;;;;15.17;5.20;;;;;;;-5.02;96.84;99834.08;3397998;85;98860;-88
2021/12/25 02:21:30;;;;;;;17.37;5.47;;;;;;;-5.16;96.74;99845.25;3423758;84;98812;-88
2021/12/25 02:26:26;;;;;;;16.10;4.80;;;;;;;-5.31;96.50;99844.91;3440686;85;99047;-88
2021/12/25 02:31:27;;;;;;;14.23;4.67;;;;;;;-5.43;96.28;99854.44;3422003;84;98511;-87
2021/12/25 02:36:28;;;;;;;9.93;3.70;;;;;;;-5.57;95.94;99862.38;3354467;86;99732;-87
2021/12/25 02:41:29;;;;;;;9.93;3.40;;;;;;;-5.70;96.00;99868.42;3347142;86;98098;-87
2021/12/25 02:46:30;;;;;;;11.00;3.50;;;;;;;-5.84;95.62;99880.13;3351133;87;97638;-87
2021/12/25 02:51:31;;;;;;;10.77;3.90;;;;;;;-5.97;95.47;99888.81;3325773;87;98890;-87
2021/12/25 02:56:32;;;;;;;12.30;3.60;;;;;;;-6.08;95.52;99886.78;3417802;85;98994;-87
2021/12/25 03:01:33;;;;;;;13.40;4.40;;;;;;;-6.17;95.57;99903.73;3386698;85;98882;-87
2021/12/25 03:06:37;;;;;;;11.33;3.90;;;;;;;-6.26;95.61;99906.22;3488285;83;98933;-87
2021/12/25 03:11:37;;;;;;;9.97;3.40;;;;;;;-6.36;94.92;99905.48;3477717;83;99413;-84
2021/12/25 03:16:39;;;;;;;9.33;3.63;;;;;;;-6.54;95.12;99927.00;3490902;83;26167;-87
2021/12/25 03:21:40;;;;;;;8.30;3.20;;;;;;;-6.60;95.16;99917.97;3475605;83;98458;-87
2021/12/25 03:26:41;;;;;;;9.40;3.40;;;;;;;-6.67;95.29;99917.45;3489385;83;98875;-87
2021/12/25 03:31:42;;;;;;;9.30;2.73;;;;;;;-6.75;94.99;99919.39;3361053;85;98710;-87
2021/12/25 03:36:43;;;;;;;9.03;3.30;;;;;;;-6.82;95.38;99920.23;3454298;84;98694;-87
2021/12/25 03:41:44;;;;;;;7.83;3.17;;;;;;;-6.84;95.80;99923.19;3415544;85;98785;-88
2021/12/25 03:46:45;;;;;;;8.73;2.40;;;;;;;-6.88;95.83;99929.37;3455757;84;26305;-87
2021/12/25 04:02:33;;;;;;;11.03;2.73;;;;;;;-6.87;96.19;99959.83;3408272;85;99131;-87
2021/12/25 04:12:48;;;;;;;6.77;3.00;;;;;;;-7.02;96.01;99960.44;3473727;83;99254;-87
2021/12/25 04:17:48;;;;;;;6.90;2.77;;;;;;;-7.10;95.69;99969.04;3451888;84;99052;-88
2021/12/25 04:22:58;;;;;;;7.67;2.40;;;;;;;-7.17;95.77;99965.31;3422749;84;97988;-88
2021/12/25 04:27:52;;;;;;;8.47;2.50;;;;;;;-7.23;95.67;99980.30;3439851;83;98538;-87
2021/12/25 05:04:34;;;;;;;13.73;3.33;;;;;;;-7.67;95.70;100004.16;3420267;84;98732;-88
2021/12/25 05:09:28;;;;;;;8.58;3.17;;;;;;;-7.67;96.15;100014.85;3421953;85;99400;-87
2021/12/25 05:14:29;;;;;;;9.63;2.50;;;;;;;-7.74;95.46;100024.98;3450311;85;98841;-88
2021/12/25 05:19:30;;;;;;;10.27;2.80;;;;;;;-7.76;95.77;100027.13;3436400;84;99374;-88
2021/12/25 05:24:30;;;;;;;9.50;2.83;;;;;;;-7.81;95.75;100032.47;3455537;84;99435;-88
2021/12/25 05:29:33;;;;;;;10.37;2.97;;;;;;;-7.86;95.52;100033.02;3443719;85;98526;-87
2021/12/25 05:34:34;;;;;;;7.23;3.00;;;;;;;-7.99;95.31;100042.34;3443028;84;99173;-87
2021/12/25 05:39:35;;;;;;;11.00;3.43;;;;;;;-8.05;95.27;100049.27;3438382;84;98744;-88
2021/12/25 05:44:36;;;;;;;12.57;3.70;;;;;;;-8.13;95.24;100047.92;3374006;85;99107;-88
2021/12/25 05:49:37;;;;;;;11.77;4.67;;;;;;;-8.21;95.11;100054.34;3443244;85;99073;-88
2021/12/25 05:54:38;;;;;;;13.97;4.73;;;;;;;-8.26;95.21;100055.66;3365515;86;99008;-88
2021/12/25 05:59:39;;;;;;;12.27;5.83;;;;;;;-8.29;95.78;100067.66;3408739;84;99530;-87
2021/12/25 06:04:40;;;;;;;10.23;3.73;;;;;;;-8.26;95.99;100065.81;3486518;83;25977;-88
2021/12/25 06:09:41;;;;;;;12.50;3.60;;;;;;;-8.22;96.54;100058.90;3441412;84;99200;-87
2021/12/25 06:14:44;;;;;;;10.13;3.40;;;;;;;-8.17;96.69;100056.73;3447059;84;99474;-88
2021/12/25 06:19:44;;;;;;;11.97;4.17;;;;;;;-8.18;96.56;100054.58;3436767;84;99129;-87
2021/12/25 06:24:49;;;;;;;13.60;4.00;;;;;;;-8.16;96.69;100063.14;3451981;84;99073;-87
2021/12/25 06:29:49;;;;;;;17.13;4.17;;;;;;;-8.17;96.63;100074.89;3471794;83;99117;-88
2021/12/25 06:34:50;;;;;;;11.53;4.10;;;;;;;-8.21;96.26;100077.03;3459753;84;32904;-88
2021/12/25 06:39:51;;;;;;;11.73;4.00;;;;;;;-8.22;96.73;100079.44;3451859;84;99335;-88
2021/12/25 06:44:52;;;;;;;11.07;4.03;;;;;;;-8.21;96.75;100091.19;3494462;83;99509;-87
2021/12/25 06:49:54;;;;;;;11.57;4.00;;;;;;;-8.25;96.40;100088.77;3446218;84;99514;-87
2021/12/25 06:54:54;;;;;;;15.70;4.57;;;;;;;-8.33;96.08;100095.96;3446078;83;99454;-88
2021/12/25 06:59:56;;;;;;;12.53;4.50;;;;;;;-8.41;95.92;100091.11;3445066;84;99382;-87
2021/12/25 07:04:57;;;;;;;9.03;3.87;;;;;;;-8.45;96.13;100091.36;3462322;84;33330;-87
2021/12/25 07:09:57;;;;;;;9.10;3.17;;;;;;;-8.48;96.34;100107.09;3439236;84;98666;-86
2021/12/25 07:14:58;;;;;;;12.17;4.50;;;;;;;-8.46;96.51;100099.65;3450672;84;98742;-87
2021/12/25 07:19:59;;;;;;;12.78;3.10;;;;;;;-8.49;96.35;100100.16;3449065;84;99098;-86
2021/12/25 07:25:01;;;;;;;11.30;3.80;;;;;;;-8.52;96.13;100101.48;3446759;84;99398;-87
2021/12/25 07:30:04;;;;;;;10.03;4.17;;;;;;;-8.59;95.90;100106.25;3441214;83;99350;-88
2021/12/25 07:35:05;;;;;;;11.40;4.23;;;;;;;-8.62;95.99;100118.77;3455573;84;30135;-88
2021/12/25 07:40:11;;;;;;;13.83;4.93;;;;;;;-8.63;96.02;100121.17;3448820;84;99342;-87
2021/12/25 07:45:13;;;;;;;11.45;4.33;;;;;;;-8.68;95.71;100129.14;3451617;84;98888;-88
2021/12/25 07:50:14;;;;;;;10.13;3.80;;;;;;;-8.70;95.84;100133.94;3393505;85;99263;-88
2021/12/25 07:55:15;;;;;;;12.87;4.23;;;;;;;-8.73;95.62;100142.99;3398770;85;99168;-88
2021/12/25 08:00:18;;;;;;;10.73;4.63;;;;;;;-8.74;95.74;100149.36;3401687;85;99056;-86
2021/12/25 08:05:20;;;;;;;14.30;5.20;;;;;;;-8.76;95.83;100152.31;3452544;84;33502;-87
2021/12/25 08:10:21;;;;;;;14.68;5.95;;;;;;;-8.74;95.79;100158.17;3443874;84;99377;-87
2021/12/25 08:15:26;;;;;;;11.83;5.20;;;;;;;-8.73;95.81;100158.98;3449391;84;99318;-87
2021/12/25 08:20:29;;;;;;;14.95;5.58;;;;;;;-8.70;95.87;100161.12;3444093;84;99473;-87
2021/12/25 08:25:30;;;;;;;16.20;7.13;;;;;;;-8.70;96.00;100162.46;3453342;84;99989;-88
2021/12/25 08:30:33;;;;;;;24.70;10.90;;;;;;;-8.60;96.77;100171.34;3391623;85;99672;-89
2021/12/25 08:35:34;;;;;;;25.17;9.40;;;;;;;-8.35;97.49;100189.34;3460777;84;32990;-88
2021/12/25 08:40:35;;;;;;;28.60;11.73;;;;;;;-8.04;98.72;100184.35;3492690;83;98862;-88
2021/12/25 08:45:49;;;;;;;22.60;8.07;;;;;;;-7.84;98.17;100186.58;3500583;83;99801;-87
2021/12/25 08:50:53;;;;;;;20.67;7.83;;;;;;;-7.71;97.93;100202.09;3487544;83;99118;-87
2021/12/25 08:55:57;;;;;;;22.50;8.13;;;;;;;-7.62;97.80;100197.85;3499208;83;99542;-88
2021/12/25 09:01:02;;;;;;;26.43;9.40;;;;;;;-7.56;97.82;100194.64;3485419;82;98868;-88
2021/12/25 09:06:03;;;;;;;39.43;15.20;;;;;;;-7.52;97.90;100199.19;3487462;83;99169;-89
2021/12/25 09:11:04;;;;;;;38.63;15.70;;;;;;;-7.46;97.93;100204.02;3414216;84;99006;-88
2021/12/25 09:16:05;;;;;;;20.80;8.87;;;;;;;-7.46;97.84;100215.52;3451401;84;99115;-86
2021/12/25 09:21:07;;;;;;;23.63;11.87;;;;;;;-7.40;98.08;100213.64;3441679;84;98980;-85
2021/12/25 09:26:08;;;;;;;25.20;9.30;;;;;;;-7.34;98.08;100214.73;3407997;85;98513;-86
2021/12/25 09:31:08;;;;;;;23.67;10.67;;;;;;;-7.29;98.27;100214.75;3478255;82;99186;-83
2021/12/25 09:36:09;;;;;;;25.27;9.23;;;;;;;-7.19;98.40;100217.95;3507147;82;99646;-84
2021/12/25 09:41:11;;;;;;;21.47;8.73;;;;;;;-7.00;98.65;100218.49;3500632;82;98703;-84
2021/12/25 09:46:11;;;;;;;20.00;7.03;;;;;;;-6.78;98.36;100221.70;3499270;82;99498;-81
2021/12/25 09:51:13;;;;;;;40.73;15.77;;;;;;;-6.58;98.13;100223.55;3504889;82;99328;-81
2021/12/25 09:56:14;;;;;;;46.60;20.57;;;;;;;-6.41;98.02;100216.02;3507811;82;99317;-81
2021/12/25 10:01:40;;;;;;;24.57;9.47;;;;;;;-6.28;97.76;100217.59;3508289;82;99172;-80
2021/12/25 10:06:45;;;;;;;25.88;11.12;;;;;;;-6.24;97.42;100229.38;3507889;82;99108;-80
2021/12/25 10:12:07;;;;;;;21.20;10.08;;;;;;;-6.17;97.54;100227.20;3490372;82;99280;-80
2021/12/25 10:17:22;;;;;;;29.50;13.37;;;;;;;-6.12;97.54;100226.41;3508129;82;26080;-81
2021/12/25 10:22:22;;;;;;;29.87;11.17;;;;;;;-6.05;97.73;100226.91;3503493;82;99161;-81
2021/12/25 10:27:24;;;;;;;36.37;14.43;;;;;;;-5.93;98.03;100228.73;3497553;82;99319;-81
2021/12/25 10:32:25;;;;;;;22.40;8.20;;;;;;;-5.83;97.85;100226.02;3504263;82;99636;-81
2021/12/25 10:37:28;;;;;;;25.43;9.90;;;;;;;-5.73;97.95;100221.37;3513794;82;99680;-81
2021/12/25 10:42:35;;;;;;;20.53;8.83;;;;;;;-5.59;97.78;100224.25;3495922;82;99464;-81
2021/12/25 10:47:36;;;;;;;21.07;7.57;;;;;;;-5.56;97.68;100228.52;3509791;82;33001;-81
2021/12/25 10:52:44;;;;;;;21.97;7.60;;;;;;;-5.48;97.86;100217.75;3511446;82;98780;-81
2021/12/25 10:57:49;;;;;;;20.47;7.13;;;;;;;-5.34;98.16;100220.09;3455902;82;98908;-81
2021/12/25 11:03:00;;;;;;;19.47;6.27;;;;;;;-5.23;97.67;100222.41;3467522;83;98330;-81
2021/12/25 11:08:08;;;;;;;17.50;5.93;;;;;;;-5.15;97.35;100206.27;3491704;83;107403;-81
2021/12/25 11:13:33;;;;;;;24.80;8.40;;;;;;;-5.05;97.69;100220.43;3506901;82;99587;-80
2021/12/25 11:19:08;;;;;;;19.80;8.07;;;;;;;-4.94;96.87;100225.16;3491312;82;99516;-82
2021/12/25 11:24:19;;;;;;;22.95;8.95;;;;;;;-4.87;97.08;100217.58;3471259;84;99470;-82
2021/12/25 11:29:25;;;;;;;18.83;7.70;;;;;;;-4.79;96.25;100219.68;3457154;84;98730;-82
2021/12/25 11:34:29;;;;;;;19.48;6.95;;;;;;;-4.75;95.75;100234.93;3460620;84;99264;-82
2021/12/25 11:39:33;;;;;;;18.87;7.95;;;;;;;-4.70;95.85;100233.55;3456941;84;98999;-82
2021/12/25 11:44:47;;;;;;;23.50;8.47;;;;;;;-4.66;96.04;100235.12;3480768;82;99038;-82
2021/12/25 11:49:58;;;;;;;20.37;7.80;;;;;;;-4.61;95.81;100245.83;3500547;82;99426;-82
2021/12/25 12:00:45;;;;;;;22.50;8.87;;;;;;;-4.58;95.18;100229.16;3498253;82;99487;-82
2021/12/25 12:05:48;;;;;;;21.50;8.40;;;;;;;-4.54;94.62;100226.97;3453115;84;98284;-82
2021/12/25 12:10:59;;;;;;;17.60;7.90;;;;;;;-4.47;95.06;100232.02;3461459;83;98905;-82
2021/12/25 12:16:04;;;;;;;22.80;8.03;;;;;;;-4.45;94.35;100236.02;3477117;83;98838;-82
2021/12/25 12:21:19;;;;;;;24.98;9.98;;;;;;;-4.45;93.98;100238.70;3465421;82;98738;-82
2021/12/25 12:26:48;;;;;;;22.93;7.50;;;;;;;-4.45;93.57;100236.55;3471883;83;99072;-82
2021/12/25 12:31:49;;;;;;;19.40;7.90;;;;;;;-4.43;93.79;100231.71;3489509;82;99435;-82
2021/12/25 12:36:50;;;;;;;21.90;8.10;;;;;;;-4.39;93.93;100248.84;3485887;83;99409;-82
2021/12/25 12:41:54;;;;;;;20.57;8.73;;;;;;;-4.37;94.03;100243.45;3407896;84;98734;-82
2021/12/25 12:47:00;;;;;;;23.13;9.77;;;;;;;-4.37;93.60;100258.78;3486767;83;32934;-82
2021/12/25 12:52:23;;;;;;;24.65;9.13;;;;;;;-4.36;93.72;100258.47;3448292;84;99286;-82
2021/12/25 12:57:33;;;;;;;28.43;11.53;;;;;;;-4.34;93.28;100253.64;3489290;84;98947;-83
2021/12/25 13:02:45;;;;;;;28.50;9.65;;;;;;;-4.34;93.43;100256.85;3453788;84;99206;-82
2021/12/25 13:07:52;;;;;;;23.87;11.00;;;;;;;-4.34;93.29;100251.48;3428270;84;99055;-82
2021/12/25 13:13:12;;;;;;;33.53;13.28;;;;;;;-4.35;93.01;100263.31;3446281;84;99817;-83
2021/12/25 13:18:13;;;;;;;28.93;12.57;;;;;;;-4.40;93.15;100268.73;3485061;84;99557;-82
2021/12/25 13:23:25;;;;;;;31.63;11.77;;;;;;;-4.44;93.14;100277.08;3499083;82;32878;-82
2021/12/25 13:28:32;;;;;;;23.17;8.87;;;;;;;-4.44;93.37;100277.90;3486503;82;99034;-83
2021/12/25 13:33:39;;;;;;;44.67;19.83;;;;;;;-4.41;92.96;100289.97;3485764;83;98972;-82
2021/12/25 13:38:50;;;;;;;41.55;14.68;;;;;;;-4.41;93.10;100288.09;3492815;82;99550;-82
2021/12/25 13:43:52;;;;;;;41.33;15.10;;;;;;;-4.49;92.79;100296.73;3495736;82;99549;-82
2021/12/25 13:48:53;;;;;;;38.73;13.62;;;;;;;-4.51;93.06;100294.89;3489519;83;99674;-83
2021/12/25 13:53:54;;;;;;;37.33;15.03;;;;;;;-4.49;92.99;100293.23;3499528;84;99910;-82
2021/12/25 13:58:55;;;;;;;29.37;11.40;;;;;;;-4.48;93.21;100295.65;3492201;83;99336;-82
2021/12/25 14:04:09;;;;;;;23.93;9.50;;;;;;;-4.49;92.88;100297.27;3436512;83;98383;-82
2021/12/25 14:09:12;;;;;;;23.77;8.80;;;;;;;-4.51;92.86;100293.55;3449497;84;99605;-82
2021/12/25 14:14:13;;;;;;;25.10;9.50;;;;;;;-4.51;92.59;100300.78;3452568;84;99816;-82
2021/12/25 14:19:15;;;;;;;26.03;9.73;;;;;;;-4.52;92.75;100312.62;3448861;84;99510;-82
2021/12/25 14:24:15;;;;;;;28.30;10.63;;;;;;;-4.57;92.65;100312.66;3450676;84;99485;-81
2021/12/25 14:29:26;;;;;;;32.20;12.37;;;;;;;-4.63;92.49;100321.27;3446151;84;99121;-82
2021/12/25 14:34:34;;;;;;;47.70;18.53;;;;;;;-4.69;92.46;100330.45;3454359;84;99387;-82
2021/12/25 14:39:35;;;;;;;32.93;14.07;;;;;;;-4.76;92.35;100330.53;3434597;84;99567;-82
2021/12/25 14:44:37;;;;;;;35.50;13.37;;;;;;;-4.84;92.53;100331.10;3439555;84;99956;-81
2021/12/25 14:49:45;;;;;;;35.17;13.20;;;;;;;-4.93;92.39;100332.23;3440738;84;100326;-81
2021/12/25 14:54:46;;;;;;;37.47;14.47;;;;;;;-5.10;92.44;100327.77;3415811;85;99853;-81
2021/12/25 14:59:47;;;;;;;41.63;16.87;;;;;;;-5.22;92.63;100323.81;3411018;85;99730;-81
2021/12/25 15:04:53;;;;;;;49.87;22.33;;;;;;;-5.33;92.71;100320.91;3419634;85;32632;-81
2021/12/25 15:09:57;;;;;;;56.05;26.70;;;;;;;-5.49;92.69;100327.41;3389538;85;99594;-81
2021/12/25 15:15:08;;;;;;;51.77;23.07;;;;;;;-5.60;93.03;100329.88;3397269;85;99723;-81
2021/12/25 15:20:18;;;;;;;53.40;23.23;;;;;;;-5.70;92.99;100328.03;3426123;84;99818;-81
2021/12/25 15:25:25;;;;;;;49.87;21.87;;;;;;;-5.82;93.25;100322.73;3374236;85;99650;-81
2021/12/25 15:30:32;;;;;;;44.70;22.30;;;;;;;-5.92;93.31;100331.61;3461654;84;99777;-81
2021/12/25 15:35:40;;;;;;;55.17;26.23;;;;;;;-6.02;93.36;100342.34;3456433;84;32789;-80
2021/12/25 15:40:46;;;;;;;65.07;27.43;;;;;;;-6.11;93.60;100342.61;3462273;84;98980;-81
2021/12/25 15:45:46;;;;;;;56.30;25.80;;;;;;;-6.21;93.48;100338.60;3460939;84;99576;-81
2021/12/25 15:50:47;;;;;;;58.00;23.17;;;;;;;-6.30;93.86;100339.42;3362419;86;99324;-81
2021/12/25 15:55:50;;;;;;;43.40;20.27;;;;;;;-6.34;94.05;100339.16;3466943;84;99313;-81
2021/12/25 16:00:53;;;;;;;61.43;24.80;;;;;;;-6.39;93.83;100335.70;3466167;84;99345;-81
2021/12/25 16:05:54;;;;;;;61.73;24.00;;;;;;;-6.51;93.53;100341.83;3473586;84;99204;-81
2021/12/25 16:10:58;;;;;;;55.27;24.77;;;;;;;-6.64;93.69;100341.84;3462083;83;98878;-81
2021/12/25 16:15:59;;;;;;;69.50;26.57;;;;;;;-6.71;93.61;100341.84;3471582;84;99101;-81
2021/12/25 16:21:02;;;;;;;45.20;18.70;;;;;;;-6.80;93.84;100336.73;3459444;84;99187;-81
2021/12/25 16:26:03;;;;;;;47.30;18.17;;;;;;;-6.93;93.47;100343.95;3465311;84;99712;-81
2021/12/25 16:31:05;;;;;;;41.30;18.67;;;;;;;-7.00;93.87;100347.39;3438075;84;99287;-81
2021/12/25 16:36:08;;;;;;;38.63;17.73;;;;;;;-7.02;93.98;100343.66;3426857;84;99238;-81
2021/12/25 16:41:09;;;;;;;41.20;18.17;;;;;;;-7.10;93.58;100346.05;3507696;82;98972;-81
2021/12/25 16:46:13;;;;;;;42.80;19.67;;;;;;;-7.18;93.69;100352.71;3497925;82;99117;-81
2021/12/25 16:51:15;;;;;;;45.10;18.12;;;;;;;-7.26;93.51;100363.89;3465628;82;99115;-81
2021/12/25 16:56:17;;;;;;;51.50;21.17;;;;;;;-7.33;93.89;100365.20;3514529;82;99216;-81
2021/12/25 17:01:19;;;;;;;54.03;21.67;;;;;;;-7.39;93.99;100361.72;3496170;82;99576;-81
2021/12/25 17:06:19;;;;;;;57.27;20.90;;;;;;;-7.47;93.80;100371.56;3412074;85;98976;-81
2021/12/25 17:11:23;;;;;;;76.47;25.90;;;;;;;-7.54;93.89;100382.21;3434158;84;98659;-81
2021/12/25 17:16:24;;;;;;;105.17;28.70;;;;;;;-7.61;93.97;100382.47;3446807;84;99108;-81
2021/12/25 17:21:27;;;;;;;124.10;33.13;;;;;;;-7.65;94.03;100389.91;3436644;84;99320;-81
2021/12/25 17:26:29;;;;;;;85.42;27.05;;;;;;;-7.73;93.95;100393.89;3454114;84;99863;-81
2021/12/25 17:31:30;;;;;;;56.27;21.50;;;;;;;-7.78;93.92;100394.38;3450051;84;99181;-80
2021/12/25 17:36:31;;;;;;;48.10;19.50;;;;;;;-7.83;94.13;100396.50;3475336;83;99286;-81
2021/12/25 17:41:35;;;;;;;61.17;23.90;;;;;;;-7.88;93.82;100394.31;3394982;85;98860;-80
2021/12/25 17:46:37;;;;;;;99.47;34.60;;;;;;;-7.98;93.59;100400.92;3388757;85;99228;-80
2021/12/25 17:51:40;;;;;;;50.97;22.43;;;;;;;-8.04;93.75;100403.28;3444155;83;99465;-80
2021/12/25 17:56:43;;;;;;;57.77;23.37;;;;;;;-8.14;93.45;100400.53;3464517;83;99033;-80
2021/12/25 18:01:44;;;;;;;59.00;21.63;;;;;;;-8.20;93.84;100400.25;3459437;83;99713;-80
2021/12/25 18:06:45;;;;;;;49.53;22.87;;;;;;;-8.24;93.72;100415.19;3527583;82;99580;-80
2021/12/25 18:11:46;;;;;;;55.77;21.83;;;;;;;-8.30;93.85;100419.66;3475611;82;99630;-80
2021/12/25 18:16:47;;;;;;;55.73;20.70;;;;;;;-8.33;94.12;100414.85;3503818;82;32463;-81
2021/12/25 18:21:49;;;;;;;60.97;21.73;;;;;;;-8.33;93.97;100416.70;3500926;82;99130;-80
2021/12/25 18:26:50;;;;;;;51.00;20.03;;;;;;;-8.38;94.04;100420.14;3501751;82;99483;-80
2021/12/25 18:31:53;;;;;;;64.50;25.40;;;;;;;-8.45;93.84;100422.73;3494621;82;99642;-80
2021/12/25 18:36:54;;;;;;;64.00;24.87;;;;;;;-8.45;93.84;100422.73;3500314;82;99731;-80
2021/12/25 18:41:59;;;;;;;79.07;28.57;;;;;;;-8.47;94.20;100424.84;3502904;82;109127;-80
2021/12/25 18:46:59;;;;;;;76.37;29.07;;;;;;;-8.53;93.86;100429.34;3508483;82;32907;-80
2021/12/25 18:52:01;;;;;;;80.30;30.70;;;;;;;-8.57;94.20;100428.22;3497666;82;99534;-79
2021/12/25 18:57:05;;;;;;;71.75;28.95;;;;;;;-8.62;93.90;100431.39;3512656;82;99927;-80
2021/12/25 19:02:10;;;;;;;70.80;26.75;;;;;;;-8.67;94.09;100421.45;3514373;82;99183;-80
2021/12/25 19:07:10;;;;;;;65.57;27.07;;;;;;;-8.70;94.24;100423.82;3510008;82;99315;-80
2021/12/25 19:12:13;;;;;;;69.77;30.77;;;;;;;-8.70;94.65;100421.97;3504296;82;99662;-81
2021/12/25 19:17:14;;;;;;;69.27;29.10;;;;;;;-8.72;94.04;100425.95;3516525;82;33038;-80
2021/12/25 19:22:16;;;;;;;77.43;31.50;;;;;;;-8.79;93.76;100440.02;3507310;82;99526;-80
2021/12/25 19:27:19;;;;;;;80.80;32.83;;;;;;;-8.87;93.99;100438.59;3511173;82;99550;-81
2021/12/25 19:32:20;;;;;;;92.03;35.00;;;;;;;-8.87;94.27;100448.44;3510476;82;99451;-82
2021/12/25 19:37:21;;;;;;;94.47;34.90;;;;;;;-8.89;94.34;100457.23;3517699;82;99986;-81
2021/12/25 19:42:22;;;;;;;90.60;35.50;;;;;;;-8.92;94.31;100455.86;3511286;82;99274;-81
2021/12/25 19:47:23;;;;;;;115.07;41.67;;;;;;;-8.97;93.80;100454.98;3518549;82;32875;-79
2021/12/25 19:52:26;;;;;;;104.93;39.63;;;;;;;-9.05;93.83;100462.10;3510830;82;99368;-80
2021/12/25 19:57:28;;;;;;;100.93;41.77;;;;;;;-9.09;94.05;100463.64;3517532;82;99966;-80
2021/12/25 20:02:29;;;;;;;123.07;43.50;;;;;;;-9.10;94.40;100464.70;3508693;82;99820;-81
2021/12/25 20:07:30;;;;;;;103.23;37.07;;;;;;;-9.15;93.79;100465.97;3483647;84;99970;-79
2021/12/25 20:12:32;;;;;;;101.30;39.17;;;;;;;-9.21;93.82;100478.41;3478329;84;99784;-80
2021/12/25 20:17:34;;;;;;;91.63;37.50;;;;;;;-9.24;93.82;100468.78;3484114;84;25975;-79
2021/12/25 20:22:35;;;;;;;90.43;36.33;;;;;;;-9.28;93.98;100468.47;3419610;84;98992;-80
2021/12/25 20:27:37;;;;;;;110.67;39.47;;;;;;;-9.28;94.03;100469.02;3405690;85;99312;-80
2021/12/25 20:32:39;;;;;;;107.73;41.67;;;;;;;-9.36;93.65;100468.91;3465275;84;99954;-81
2021/12/25 20:37:41;;;;;;;104.53;43.27;;;;;;;-9.40;93.84;100469.12;3434748;85;99748;-81
2021/12/25 20:42:42;;;;;;;104.27;42.03;;;;;;;-9.44;93.86;100458.66;3385958;86;99878;-81
2021/12/25 20:47:44;;;;;;;99.67;41.23;;;;;;;-9.43;93.94;100456.81;3440793;84;99795;-81
2021/12/25 20:52:47;;;;;;;101.73;40.00;;;;;;;-9.46;94.02;100457.30;3464998;84;98691;-81
2021/12/25 20:57:50;;;;;;;101.03;41.77;;;;;;;-9.50;94.02;100452.17;3471159;84;99343;-81
2021/12/25 21:02:51;;;;;;;100.40;37.93;;;;;;;-9.52;94.12;100461.77;3467847;84;99369;-82
2021/12/25 21:07:54;;;;;;;91.20;36.23;;;;;;;-9.56;93.96;100465.14;3470511;84;99843;-82
2021/12/25 21:12:58;;;;;;;91.03;36.47;;;;;;;-9.59;93.88;100465.65;3478937;84;99423;-81
2021/12/25 21:18:03;;;;;;;90.67;35.83;;;;;;;-9.69;93.52;100467.65;3469666;84;99270;-82
2021/12/25 21:23:05;;;;;;;97.33;36.87;;;;;;;-9.73;93.60;100462.52;3475480;84;33513;-82
2021/12/25 21:28:08;;;;;;;96.07;36.23;;;;;;;-9.71;93.94;100472.39;3472137;84;99560;-82
2021/12/25 21:33:12;;;;;;;84.93;34.70;;;;;;;-9.81;93.57;100464.79;3476269;84;99448;-81
2021/12/25 21:38:12;;;;;;;80.22;29.92;;;;;;;-9.78;94.00;100477.09;3466991;84;99996;-82
2021/12/25 21:43:18;;;;;;;80.83;32.53;;;;;;;-9.76;94.24;100473.64;3472222;84;99223;-81
2021/12/25 21:48:19;;;;;;;;;;;;;;;-9.77;93.93;100477.91;3471449;84;99310;-81
2021/12/25 21:53:21;;;;;;;74.10;30.40;;;;;;;-9.81;94.15;100473.56;3478662;84;33368;-81
2021/12/25 21:58:24;;;;;;;66.53;27.03;;;;;;;-9.80;94.33;100469.06;3470622;84;99530;-81
2021/12/25 22:03:27;;;;;;;73.00;29.53;;;;;;;-9.83;94.07;100471.69;3479693;83;99821;-82
2021/12/25 22:08:28;;;;;;;78.77;29.67;;;;;;;-9.91;93.82;100469.45;3478109;83;99548;-81
2021/12/25 22:13:31;;;;;;;64.77;26.73;;;;;;;-9.89;94.24;100454.03;3500863;82;99687;-81
2021/12/25 22:18:33;;;;;;;74.77;27.42;;;;;;;-9.93;93.84;100466.74;3496053;83;99629;-82
2021/12/25 22:23:36;;;;;;;71.03;28.87;;;;;;;-10.00;93.87;100474.88;3504460;83;32959;-81
2021/12/25 22:28:39;;;;;;;73.50;27.07;;;;;;;-10.00;94.10;100480.72;3499689;82;99134;-82
2021/12/25 22:33:40;;;;;;;67.40;26.67;;;;;;;-10.01;93.99;100483.10;3503195;82;99703;-81
2021/12/25 22:38:41;;;;;;;65.67;26.23;;;;;;;-10.02;94.11;100486.30;3499825;82;99872;-81
2021/12/25 22:43:42;;;;;;;70.17;27.27;;;;;;;-10.04;94.12;100478.31;3493669;83;99452;-80
2021/12/25 22:48:43;;;;;;;72.73;29.83;;;;;;;-10.12;93.59;100487.50;3510063;82;99784;-80
2021/12/25 22:53:45;;;;;;;68.70;27.60;;;;;;;-10.16;93.82;100482.36;3500146;83;99884;-81
2021/12/25 22:58:46;;;;;;;66.73;25.83;;;;;;;-10.13;94.28;100482.41;3496814;83;99623;-81
2021/12/25 23:03:50;;;;;;;91.63;32.53;;;;;;;-10.14;94.06;100482.13;3499942;82;99588;-81
2021/12/25 23:08:56;;;;;;;83.53;33.17;;;;;;;-10.19;93.82;100484.16;3522292;82;99821;-80
2021/12/25 23:14:00;;;;;;;81.00;31.17;;;;;;;-10.21;94.06;100486.78;3525436;82;99997;-80
2021/12/25 23:19:04;;;;;;;68.00;26.02;;;;;;;-10.21;94.45;100475.62;3492185;83;99927;-79
2021/12/25 23:24:06;;;;;;;78.10;30.53;;;;;;;-10.27;93.88;100471.78;3522751;82;99829;-79
2021/12/25 23:29:08;;;;;;;76.47;29.60;;;;;;;-10.25;94.22;100461.73;3497569;82;99351;-79
2021/12/25 23:34:09;;;;;;;77.00;29.43;;;;;;;-10.25;94.00;100457.73;3520266;82;99623;-80
2021/12/25 23:39:10;;;;;;;64.50;25.93;;;;;;;-10.25;94.00;100457.73;3476689;82;99567;-80
2021/12/25 23:44:20;;;;;;;66.57;23.80;;;;;;;-10.29;94.24;100462.73;3485349;83;99431;-79
2021/12/25 23:49:16;;;;;;;65.60;23.98;;;;;;;-10.29;94.37;100468.56;3487535;82;99336;-80
2021/12/25 23:54:17;;;;;;;57.50;21.97;;;;;;;-10.30;94.52;100464.30;3509880;83;99945;-79
2021/12/25 23:59:18;;;;;;;61.57;22.70;;;;;;;-10.32;94.27;100467.19;3496349;83;99001;-81
